Time;durP1;ratioP1;P1;durP2;ratioP2;P2;SDS_P1;SDS_P2;PMS_P1;PMS_P2;Temp;Humidity;BMP_temperature;BMP_pressure;BME280_temperature;BME280_humidity;BME280_pressure;Samples;Min_cycle;Max_cycle;Signal;HPM_P1;HPM_P2
2023/07/02 00:01:31;;;;;;;16.02;7.40;;;;;;;19.01;63.67;100627.50;5089353;28;20055;-68
2023/07/02 00:03:56;;;;;;;15.52;7.15;;;;;;;18.95;63.84;100620.34;5091973;28;20399;-68
2023/07/02 00:06:21;;;;;;;12.25;7.45;;;;;;;19.00;63.74;100621.03;5060891;28;20036;-68
2023/07/02 00:08:46;;;;;;;13.70;7.38;;;;;;;18.96;63.73;100625.63;5087949;28;20464;-68
2023/07/02 00:11:15;;;;;;;14.43;7.85;;;;;;;18.92;63.95;100620.97;5091036;28;20056;-68
2023/07/02 00:13:41;;;;;;;14.68;8.10;;;;;;;18.92;63.68;100623.78;5062911;28;20163;-68
2023/07/02 00:16:06;;;;;;;14.98;7.97;;;;;;;18.92;63.88;100616.16;5070490;28;20124;-68
2023/07/02 00:18:33;;;;;;;16.27;7.78;;;;;;;18.92;63.96;100618.16;5071405;28;20056;-68
2023/07/02 00:21:02;;;;;;;15.07;8.02;;;;;;;18.91;63.71;100619.31;5058318;28;20536;-68
2023/07/02 00:23:28;;;;;;;16.65;8.80;;;;;;;18.91;63.88;100613.69;5066484;28;20415;-68
2023/07/02 00:25:53;;;;;;;17.10;8.88;;;;;;;18.91;63.99;100617.31;5058649;28;20032;-68
2023/07/02 00:28:19;;;;;;;18.45;9.45;;;;;;;18.92;63.59;100613.34;5049956;28;20037;-68
2023/07/02 00:30:44;;;;;;;19.40;9.63;;;;;;;18.88;63.72;100606.69;5055673;28;20027;-68
2023/07/02 00:33:09;;;;;;;18.15;9.60;;;;;;;18.90;63.58;100610.00;5062901;28;20032;-68
2023/07/02 00:35:35;;;;;;;18.02;9.55;;;;;;;18.88;63.36;100606.69;5053990;28;20511;-68
2023/07/02 00:38:00;;;;;;;18.38;9.85;;;;;;;18.87;63.32;100605.88;5056331;28;20400;-68
2023/07/02 00:40:27;;;;;;;21.15;9.88;;;;;;;18.86;63.28;100592.97;5053128;28;20097;-68
2023/07/02 00:42:52;;;;;;;20.02;10.07;;;;;;;18.78;63.37;100602.09;5069423;28;20041;-68
2023/07/02 00:45:18;;;;;;;22.85;10.48;;;;;;;18.85;63.33;100601.69;5069358;28;20021;-68
2023/07/02 00:47:44;;;;;;;20.52;11.10;;;;;;;18.78;63.22;100604.94;5060327;28;20205;-68
2023/07/02 00:50:10;;;;;;;24.88;11.10;;;;;;;18.78;63.38;100613.34;5050323;28;20029;-68
2023/07/02 00:52:35;;;;;;;26.55;11.32;;;;;;;18.79;63.35;100620.66;5069896;28;20031;-68
2023/07/02 00:55:02;;;;;;;23.00;12.00;;;;;;;18.80;63.01;100630.75;5070489;28;20035;-68
2023/07/02 00:57:29;;;;;;;22.90;11.77;;;;;;;18.78;63.44;100630.22;5053435;28;20021;-68
2023/07/02 00:59:56;;;;;;;22.48;12.07;;;;;;;18.73;63.10;100624.72;5051584;28;20032;-68
2023/07/02 01:02:21;;;;;;;22.25;12.60;;;;;;;18.75;63.24;100624.44;5066232;28;20116;-68
2023/07/02 01:04:49;;;;;;;24.13;12.82;;;;;;;18.74;63.21;100634.00;5062696;28;20445;-68
2023/07/02 01:07:15;;;;;;;21.33;12.75;;;;;;;18.74;63.26;100634.00;5070922;28;20761;-68
2023/07/02 01:09:40;;;;;;;24.73;13.30;;;;;;;18.72;63.23;100627.84;5057686;28;20059;-68
2023/07/02 01:12:09;;;;;;;24.77;13.38;;;;;;;18.68;63.21;100636.06;5050284;28;20025;-68
2023/07/02 01:14:37;;;;;;;22.27;12.63;;;;;;;18.68;63.45;100638.88;5066586;28;20049;-68
2023/07/02 01:17:04;;;;;;;29.02;14.07;;;;;;;18.62;63.30;100637.28;5069033;28;20028;-68
2023/07/02 01:19:45;;;;;;;25.15;13.73;;;;;;;18.65;63.31;100637.50;5066180;28;20035;-68
2023/07/02 01:22:12;;;;;;;28.98;14.52;;;;;;;18.53;63.70;100639.16;5056907;28;20024;-68
2023/07/02 01:24:40;;;;;;;32.45;14.88;;;;;;;18.54;63.49;100640.81;5073964;28;20677;-68
2023/07/02 01:27:06;;;;;;;28.75;15.38;;;;;;;18.50;63.64;100645.41;5074429;28;20115;-68
2023/07/02 01:29:32;;;;;;;26.17;15.07;;;;;;;18.52;63.63;100643.13;5068209;28;20111;-69
2023/07/02 01:31:57;;;;;;;28.05;15.35;;;;;;;18.51;63.77;100647.94;5073805;28;20029;-69
2023/07/02 01:34:22;;;;;;;27.92;15.25;;;;;;;18.55;63.76;100653.72;5072695;28;20035;-68
2023/07/02 01:36:48;;;;;;;31.05;16.25;;;;;;;18.51;63.91;100649.88;5094477;28;20024;-68
2023/07/02 01:39:13;;;;;;;28.77;15.55;;;;;;;18.49;64.04;100655.00;5071513;28;20487;-68
2023/07/02 01:41:49;;;;;;;26.88;14.95;;;;;;;18.55;63.91;100664.97;5088113;28;20628;-68
2023/07/02 01:44:14;;;;;;;26.88;15.82;;;;;;;18.50;63.74;100662.28;5070516;28;20040;-68
2023/07/02 01:46:39;;;;;;;29.95;16.15;;;;;;;18.46;64.00;100652.81;5054727;28;20025;-68
2023/07/02 01:49:05;;;;;;;27.90;15.73;;;;;;;18.45;64.17;100657.59;5072984;28;20028;-68
2023/07/02 01:51:30;;;;;;;30.33;16.75;;;;;;;18.44;64.12;100655.94;5064858;28;20036;-68
2023/07/02 01:53:55;;;;;;;31.25;16.90;;;;;;;18.42;64.13;100652.59;5060195;28;20484;-68
2023/07/02 01:56:20;;;;;;;34.55;16.42;;;;;;;18.41;64.38;100653.75;5070080;28;20029;-68
2023/07/02 01:58:46;;;;;;;29.20;16.55;;;;;;;18.38;64.38;100660.81;5072898;28;20108;-68
2023/07/02 02:01:11;;;;;;;30.27;17.20;;;;;;;18.38;64.39;100663.59;5073304;28;20440;-68
2023/07/02 02:03:36;;;;;;;32.00;17.48;;;;;;;18.34;64.61;100659.75;5071156;28;20515;-68
2023/07/02 02:06:02;;;;;;;35.20;18.83;;;;;;;18.35;64.78;100661.44;5067350;28;20112;-68
2023/07/02 02:08:27;;;;;;;35.70;18.40;;;;;;;18.35;64.59;100660.59;5070671;28;20042;-68
2023/07/02 02:10:52;;;;;;;30.42;17.17;;;;;;;18.31;65.24;100667.97;5072771;28;20112;-68
2023/07/02 02:13:18;;;;;;;31.63;18.75;;;;;;;18.29;64.96;100659.84;5068396;28;20020;-68
2023/07/02 02:15:43;;;;;;;29.77;17.40;;;;;;;18.31;65.03;100666.03;5072612;28;20048;-68
2023/07/02 02:18:08;;;;;;;32.63;18.45;;;;;;;18.29;65.22;100659.84;5074445;28;20058;-68
2023/07/02 02:20:34;;;;;;;37.78;18.00;;;;;;;18.33;65.12;100663.72;5071776;28;20068;-68
2023/07/02 02:22:59;;;;;;;31.95;18.45;;;;;;;18.27;65.37;100664.13;5058291;28;20028;-68
2023/07/02 02:25:24;;;;;;;33.63;18.80;;;;;;;18.23;65.51;100661.09;5060759;28;20025;-68
2023/07/02 02:27:50;;;;;;;35.25;18.40;;;;;;;18.25;65.32;100667.25;5054687;28;20396;-68
2023/07/02 02:30:15;;;;;;;30.95;18.48;;;;;;;18.25;65.28;100672.84;5067172;28;20135;-68
2023/07/02 02:32:41;;;;;;;33.67;17.33;;;;;;;18.22;65.51;100667.03;5053454;28;20056;-68
2023/07/02 02:35:07;;;;;;;32.65;18.48;;;;;;;18.19;65.42;100673.25;5052098;28;20041;-68
2023/07/02 02:37:34;;;;;;;34.85;18.85;;;;;;;18.18;65.50;100668.78;5053301;28;20029;-68
2023/07/02 02:40:00;;;;;;;35.85;18.58;;;;;;;18.15;65.55;100671.06;5085596;28;20028;-68
2023/07/02 02:42:25;;;;;;;35.60;18.15;;;;;;;18.21;65.42;100677.44;5092293;28;20478;-69
2023/07/02 02:44:51;;;;;;;31.30;18.25;;;;;;;18.18;65.25;100674.41;5079656;28;20567;-68
2023/07/02 02:47:16;;;;;;;36.47;19.30;;;;;;;18.11;65.46;100674.78;5068073;28;20048;-68
2023/07/02 02:49:41;;;;;;;37.00;19.27;;;;;;;18.14;65.42;100686.25;5066350;28;20029;-68
2023/07/02 02:52:07;;;;;;;35.72;19.27;;;;;;;18.09;65.48;100682.72;5060670;28;20041;-68
2023/07/02 02:54:32;;;;;;;35.65;17.73;;;;;;;18.09;65.61;100688.31;5052243;28;20031;-68
2023/07/02 02:56:57;;;;;;;36.10;18.27;;;;;;;18.03;65.67;100686.72;5077479;28;20067;-68
2023/07/02 02:59:22;;;;;;;34.70;18.30;;;;;;;18.01;65.77;100684.25;5067347;28;20037;-68
2023/07/02 03:01:48;;;;;;;31.15;18.05;;;;;;;18.00;65.62;100693.81;5058762;28;20419;-68
2023/07/02 03:04:13;;;;;;;36.78;19.02;;;;;;;17.99;65.65;100705.34;5067873;28;20040;-68
2023/07/02 03:06:39;;;;;;;33.72;18.67;;;;;;;17.97;65.66;100702.84;5066651;28;20082;-68
2023/07/02 03:09:04;;;;;;;37.00;19.55;;;;;;;17.94;65.82;100699.81;5060000;28;20075;-69
2023/07/02 03:11:30;;;;;;;42.60;20.45;;;;;;;17.88;65.65;100707.47;5066013;28;20024;-68
2023/07/02 03:13:55;;;;;;;33.40;19.20;;;;;;;17.87;65.75;100715.06;5065171;28;20032;-68
2023/07/02 03:16:21;;;;;;;36.38;19.75;;;;;;;17.90;65.91;100717.28;5061723;28;20055;-68
2023/07/02 03:18:46;;;;;;;34.25;18.83;;;;;;;17.81;66.14;100724.72;5064188;28;20040;-68
2023/07/02 03:21:12;;;;;;;37.60;19.48;;;;;;;17.81;66.06;100712.66;5060888;28;20032;-68
2023/07/02 03:23:37;;;;;;;34.90;18.65;;;;;;;17.86;65.91;100715.38;5053863;28;20021;-68
2023/07/02 03:26:02;;;;;;;36.97;18.30;;;;;;;17.87;65.70;100722.66;5058272;28;20758;-68
2023/07/02 03:28:28;;;;;;;38.05;19.63;;;;;;;17.84;65.62;100718.50;5056860;28;20025;-68
2023/07/02 03:30:53;;;;;;;32.78;19.52;;;;;;;17.82;65.39;100732.00;5052067;28;20024;-68
2023/07/02 03:33:18;;;;;;;34.30;17.63;;;;;;;17.80;65.54;100730.63;5065659;28;20162;-68
2023/07/02 03:35:44;;;;;;;32.85;18.17;;;;;;;17.82;65.31;100734.81;5051181;28;20032;-69
2023/07/02 03:38:09;;;;;;;30.60;17.73;;;;;;;17.79;65.07;100737.38;5052125;28;20044;-68
2023/07/02 03:40:34;;;;;;;31.98;16.85;;;;;;;17.78;64.84;100739.38;5064852;28;20055;-68
2023/07/02 03:43:00;;;;;;;34.20;17.85;;;;;;;17.75;64.40;100742.78;5060798;28;20033;-68
2023/07/02 03:45:25;;;;;;;31.88;17.30;;;;;;;17.75;64.57;100739.97;5051632;28;20120;-68
2023/07/02 03:47:50;;;;;;;30.88;17.25;;;;;;;17.73;64.05;100732.97;5062018;28;20036;-68
2023/07/02 03:50:16;;;;;;;34.58;17.17;;;;;;;17.72;64.06;100737.72;5070904;28;20031;-68
2023/07/02 03:52:41;;;;;;;29.63;15.75;;;;;;;17.69;63.80;100740.34;5053725;28;20461;-68
2023/07/02 03:55:07;;;;;;;33.42;16.67;;;;;;;17.61;63.38;100736.25;5059808;28;20478;-68
2023/07/02 03:57:32;;;;;;;26.88;15.98;;;;;;;17.63;63.37;100739.56;5050362;28;20585;-68
2023/07/02 03:59:58;;;;;;;31.25;15.18;;;;;;;17.65;63.08;100743.75;5065136;28;20032;-68
2023/07/02 04:02:23;;;;;;;29.42;14.90;;;;;;;17.67;62.65;100749.03;5058387;28;20035;-68
2023/07/02 04:04:48;;;;;;;27.45;14.63;;;;;;;17.60;62.56;100752.22;5064801;28;20434;-68
2023/07/02 04:07:14;;;;;;;26.88;15.00;;;;;;;17.63;62.10;100760.03;5070057;28;20044;-68
2023/07/02 04:09:39;;;;;;;27.17;14.65;;;;;;;17.62;61.78;100758.38;5053153;28;20134;-68
2023/07/02 04:12:05;;;;;;;23.98;13.82;;;;;;;17.59;61.65;100750.56;5061135;28;20400;-68
2023/07/02 04:14:30;;;;;;;25.02;14.40;;;;;;;17.60;61.64;100752.22;5059872;28;20393;-68
2023/07/02 04:16:55;;;;;;;24.30;14.68;;;;;;;17.58;61.57;100753.69;5051392;28;20111;-68
2023/07/02 04:19:21;;;;;;;26.10;13.63;;;;;;;17.53;61.42;100756.56;5051273;28;20049;-68
2023/07/02 04:21:46;;;;;;;27.83;14.50;;;;;;;17.54;61.64;100747.00;5052483;28;20029;-68
2023/07/02 04:24:12;;;;;;;27.40;14.32;;;;;;;17.60;61.66;100762.63;5058293;28;20139;-68
2023/07/02 04:26:37;;;;;;;30.00;13.93;;;;;;;17.53;61.30;100756.56;5051319;28;20457;-68
2023/07/02 04:29:02;;;;;;;32.10;14.43;;;;;;;17.53;61.32;100765.00;5050295;28;20025;-68
2023/07/02 04:31:28;;;;;;;27.98;14.35;;;;;;;17.51;61.38;100767.25;5050724;28;20031;-68
2023/07/02 04:33:53;;;;;;;27.95;14.35;;;;;;;17.52;61.31;100766.09;5077522;28;20150;-68
2023/07/02 04:36:18;;;;;;;28.40;14.73;;;;;;;17.55;61.26;100771.13;5081466;28;20099;-68
2023/07/02 04:38:44;;;;;;;27.17;14.98;;;;;;;17.50;61.21;100760.81;5069784;28;20032;-68
2023/07/02 04:41:10;;;;;;;27.48;14.52;;;;;;;17.57;61.29;100766.06;5062553;28;20020;-68
2023/07/02 04:43:36;;;;;;;28.17;15.10;;;;;;;17.53;61.23;100762.19;5070148;28;20048;-68
2023/07/02 04:46:01;;;;;;;28.83;14.77;;;;;;;17.50;61.31;100774.00;5057766;28;20068;-68
2023/07/02 04:48:27;;;;;;;28.67;15.27;;;;;;;17.54;61.43;100775.06;5075122;28;20084;-68
2023/07/02 04:50:53;;;;;;;25.45;15.02;;;;;;;17.58;61.11;100776.13;5082948;28;20060;-68
2023/07/02 04:53:18;;;;;;;26.67;14.77;;;;;;;17.57;61.04;100775.31;5071162;28;20136;-68
2023/07/02 04:55:43;;;;;;;29.38;13.45;;;;;;;17.64;60.76;100774.91;5070077;28;20476;-68
2023/07/02 04:58:09;;;;;;;29.38;14.73;;;;;;;17.63;61.31;100784.47;5090328;28;20050;-69
2023/07/02 05:00:34;;;;;;;23.48;13.32;;;;;;;17.67;60.86;100786.38;5057683;28;20396;-68
2023/07/02 05:02:59;;;;;;;26.88;13.82;;;;;;;17.59;60.65;100781.44;5056284;28;20391;-68
2023/07/02 05:05:25;;;;;;;24.52;13.73;;;;;;;17.67;60.27;100793.94;5062348;28;20456;-68
2023/07/02 05:07:50;;;;;;;29.30;14.73;;;;;;;17.66;59.90;100795.09;5061569;28;20033;-68
2023/07/02 05:10:15;;;;;;;28.25;14.60;;;;;;;17.74;59.71;100790.78;5059944;28;20031;-68
2023/07/02 05:12:41;;;;;;;29.77;13.85;;;;;;;17.68;59.50;100787.19;5055004;28;20481;-68
2023/07/02 05:15:06;;;;;;;23.50;12.60;;;;;;;17.70;58.88;100784.94;5060782;28;20039;-68
2023/07/02 05:17:34;;;;;;;27.45;13.63;;;;;;;17.77;58.77;100796.66;5075783;28;20808;-68
2023/07/02 05:20:00;;;;;;;24.40;12.35;;;;;;;17.76;58.02;100802.56;5074815;28;20052;-68
2023/07/02 05:22:26;;;;;;;23.35;12.25;;;;;;;17.79;57.82;100810.38;5073604;28;20028;-68
2023/07/02 05:24:51;;;;;;;23.65;11.80;;;;;;;17.85;57.58;100809.19;5064028;28;20033;-68
2023/07/02 05:27:16;;;;;;;25.95;11.65;;;;;;;17.81;56.84;100813.75;5054565;28;20086;-68
2023/07/02 05:29:43;;;;;;;24.00;11.88;;;;;;;17.85;56.79;100812.00;5073294;28;20064;-69
2023/07/02 05:32:08;;;;;;;24.48;10.63;;;;;;;17.85;56.27;100814.81;5073373;28;20031;-68
2023/07/02 05:34:33;;;;;;;20.77;10.77;;;;;;;17.86;55.99;100822.06;5058778;28;20025;-68
2023/07/02 05:36:59;;;;;;;22.42;10.15;;;;;;;17.82;55.84;100827.47;5090339;28;20071;-68
2023/07/02 05:39:24;;;;;;;24.98;11.10;;;;;;;17.83;54.99;100823.50;5059904;28;20089;-68
2023/07/02 05:41:49;;;;;;;22.75;10.07;;;;;;;17.87;55.73;100824.56;5058751;28;20059;-68
2023/07/02 05:44:15;;;;;;;22.48;10.32;;;;;;;17.87;55.77;100827.38;5058576;28;20032;-68
2023/07/02 05:46:40;;;;;;;24.38;10.57;;;;;;;17.90;55.75;100826.78;5063178;28;20017;-69
2023/07/02 05:49:06;;;;;;;24.42;10.82;;;;;;;17.93;55.61;100833.78;5053928;28;20141;-68
2023/07/02 05:51:31;;;;;;;24.95;10.35;;;;;;;17.93;55.17;100835.75;5059467;28;20068;-69
2023/07/02 05:53:57;;;;;;;22.45;10.10;;;;;;;17.98;54.78;100833.69;5071843;28;20032;-68
2023/07/02 05:56:22;;;;;;;20.83;9.25;;;;;;;17.97;55.03;100834.00;5092626;28;20398;-68
2023/07/02 05:58:48;;;;;;;22.30;9.55;;;;;;;18.02;54.70;100836.72;5093665;28;20544;-68
2023/07/02 06:01:14;;;;;;;17.83;9.30;;;;;;;18.02;54.43;100843.19;5084080;28;20044;-68
2023/07/02 06:03:39;;;;;;;18.63;9.13;;;;;;;18.05;54.43;100844.56;5072256;28;20071;-68
2023/07/02 06:06:05;;;;;;;22.17;9.02;;;;;;;18.12;54.20;100839.41;5072933;28;20035;-69
2023/07/02 06:08:30;;;;;;;20.75;9.20;;;;;;;18.19;54.42;100848.25;5070631;28;20039;-69
2023/07/02 06:10:55;;;;;;;20.40;8.65;;;;;;;18.15;54.17;100853.66;5071896;28;20404;-68
2023/07/02 06:13:20;;;;;;;20.27;8.63;;;;;;;18.26;54.30;100853.50;5073273;28;20487;-69
2023/07/02 06:15:47;;;;;;;21.23;8.75;;;;;;;18.31;53.70;100857.09;5073018;28;20680;-68
2023/07/02 06:18:12;;;;;;;23.88;9.48;;;;;;;18.35;54.10;100846.91;5073722;28;20044;-68
2023/07/02 06:20:37;;;;;;;24.33;9.52;;;;;;;18.40;53.92;100855.25;5071740;28;20028;-68
2023/07/02 06:23:03;;;;;;;21.90;8.93;;;;;;;18.43;54.00;100852.94;5073699;28;20021;-68
2023/07/02 06:25:28;;;;;;;18.95;8.70;;;;;;;18.40;53.97;100857.22;5090235;28;20380;-68
2023/07/02 06:27:55;;;;;;;19.05;8.93;;;;;;;18.43;54.03;100858.56;5070685;28;20128;-68
2023/07/02 06:30:24;;;;;;;17.02;8.15;;;;;;;18.47;53.34;100859.63;5053635;28;20434;-68
2023/07/02 06:32:50;;;;;;;18.00;8.20;;;;;;;18.49;53.70;100862.97;5053427;28;20083;-68
2023/07/02 06:35:15;;;;;;;20.73;9.27;;;;;;;18.47;53.34;100873.69;5052249;28;20021;-68
2023/07/02 06:37:40;;;;;;;16.15;7.93;;;;;;;18.46;52.98;100872.84;5053790;28;20136;-68
2023/07/02 06:40:06;;;;;;;15.02;7.47;;;;;;;18.49;53.50;100877.84;5070278;28;20033;-68
2023/07/02 06:42:32;;;;;;;16.02;7.43;;;;;;;18.52;53.34;100868.81;5072753;28;20116;-68
2023/07/02 06:44:58;;;;;;;17.90;7.97;;;;;;;18.47;53.47;100871.72;5072876;28;20024;-68
2023/07/02 06:47:23;;;;;;;18.75;7.78;;;;;;;18.55;53.57;100881.41;5064819;28;20044;-68
2023/07/02 06:49:49;;;;;;;20.25;8.02;;;;;;;18.53;53.06;100875.28;5072595;28;20526;-68
2023/07/02 06:52:14;;;;;;;21.08;8.20;;;;;;;18.52;53.62;100873.63;5072812;28;20052;-68
2023/07/02 06:54:40;;;;;;;22.45;8.32;;;;;;;18.57;53.45;100881.94;5063588;28;20448;-69
2023/07/02 06:57:05;;;;;;;16.58;7.90;;;;;;;18.58;52.67;100884.44;5074980;28;20438;-68
2023/07/02 06:59:31;;;;;;;21.67;7.43;;;;;;;18.58;53.36;100883.63;5061988;28;20311;-68
2023/07/02 07:01:56;;;;;;;22.38;8.52;;;;;;;18.60;53.62;100893.44;5064736;28;20036;-69
2023/07/02 07:04:21;;;;;;;23.70;9.27;;;;;;;18.62;53.84;100884.66;5076816;28;20028;-66
2023/07/02 07:06:47;;;;;;;16.95;7.32;;;;;;;18.68;53.57;100894.69;5070228;28;20028;-68
2023/07/02 07:09:12;;;;;;;20.13;7.85;;;;;;;18.71;53.44;100901.72;5074284;28;20020;-68
2023/07/02 07:11:37;;;;;;;20.00;7.85;;;;;;;18.71;54.04;100899.75;5061605;28;20035;-68
2023/07/02 07:14:03;;;;;;;19.63;8.13;;;;;;;18.73;53.93;100902.25;5059340;28;20035;-67
2023/07/02 07:16:28;;;;;;;21.00;8.25;;;;;;;18.74;52.52;100906.72;5051800;28;20055;-69
2023/07/02 07:18:53;;;;;;;16.67;7.43;;;;;;;18.81;52.31;100907.16;5069058;28;20044;-70
2023/07/02 07:21:19;;;;;;;15.90;6.63;;;;;;;18.86;51.87;100907.94;5081891;28;20025;-70
2023/07/02 07:23:44;;;;;;;16.52;7.05;;;;;;;18.88;51.14;100916.88;5067780;28;20094;-68
2023/07/02 07:26:09;;;;;;;15.25;7.53;;;;;;;18.98;51.55;100912.22;5064109;28;20112;-74
2023/07/02 07:28:35;;;;;;;14.25;7.35;;;;;;;19.00;51.53;100915.56;5056616;28;20104;-72
2023/07/02 07:31:00;;;;;;;16.10;7.68;;;;;;;19.03;51.04;100917.78;5057426;28;20115;-71
2023/07/02 07:33:26;;;;;;;15.90;7.00;;;;;;;19.11;51.20;100922.69;5052132;28;20059;-71
2023/07/02 07:35:51;;;;;;;17.73;7.45;;;;;;;19.15;50.78;100936.97;5065378;28;20040;-71
2023/07/02 07:38:16;;;;;;;15.38;7.15;;;;;;;19.20;50.39;100937.69;5050954;28;20029;-71
2023/07/02 07:40:43;;;;;;;17.30;7.13;;;;;;;19.17;50.10;100937.47;5063539;28;20060;-72
2023/07/02 07:43:08;;;;;;;13.77;6.55;;;;;;;19.09;50.42;100933.41;5052283;28;20467;-73
2023/07/02 07:45:34;;;;;;;15.18;6.65;;;;;;;19.15;51.13;100937.81;5051671;28;20109;-77
2023/07/02 07:47:59;;;;;;;13.63;6.40;;;;;;;19.19;51.30;100946.47;5070215;28;20024;-77
2023/07/02 07:50:25;;;;;;;18.70;7.22;;;;;;;19.17;50.83;100952.38;5060312;28;20025;-74
2023/07/02 07:52:51;;;;;;;13.18;6.15;;;;;;;19.18;50.92;100947.59;5052858;28;20067;-73
2023/07/02 07:55:16;;;;;;;12.27;6.30;;;;;;;19.21;50.96;100939.38;5069481;28;20484;-72
2023/07/02 07:57:42;;;;;;;13.82;6.30;;;;;;;19.23;50.66;100953.97;5071603;28;20078;-75
2023/07/02 08:00:09;;;;;;;16.02;7.10;;;;;;;19.28;50.72;100950.22;5069383;28;20029;-74
2023/07/02 08:02:35;;;;;;;12.88;6.47;;;;;;;19.25;51.02;100946.03;5068210;28;20047;-73
2023/07/02 08:05:00;;;;;;;16.02;7.38;;;;;;;19.30;50.75;100942.31;5066132;28;20517;-74
2023/07/02 08:07:26;;;;;;;16.73;7.28;;;;;;;19.29;50.61;100944.28;5070488;28;20038;-75
2023/07/02 08:09:51;;;;;;;15.27;6.63;;;;;;;19.40;51.24;100938.47;5057650;28;20113;-75
2023/07/02 08:12:16;;;;;;;18.30;6.97;;;;;;;19.42;51.18;100948.28;5049677;28;20068;-75
2023/07/02 08:14:42;;;;;;;12.90;6.05;;;;;;;19.43;49.02;100955.56;5050879;28;20940;-74
2023/07/02 08:17:07;;;;;;;12.57;5.90;;;;;;;19.40;48.12;100949.72;5051679;28;20103;-74
2023/07/02 08:19:32;;;;;;;13.00;6.35;;;;;;;19.41;48.36;100962.66;5051239;28;20377;-76
2023/07/02 08:21:57;;;;;;;13.75;5.88;;;;;;;19.32;47.36;100960.56;5052571;28;20139;-74
2023/07/02 08:24:23;;;;;;;14.52;6.72;;;;;;;19.31;48.33;100969.31;5051376;28;20063;-75
2023/07/02 08:26:49;;;;;;;14.85;6.72;;;;;;;19.34;47.58;100975.16;5050984;28;20029;-72
2023/07/02 08:29:14;;;;;;;15.50;6.40;;;;;;;19.31;48.58;100964.53;5069228;28;20038;-72
2023/07/02 08:31:40;;;;;;;14.43;6.63;;;;;;;19.36;47.92;100972.88;5056374;28;20227;-77
2023/07/02 08:34:06;;;;;;;13.77;6.32;;;;;;;19.36;47.97;100972.03;5050667;28;20536;-71
2023/07/02 08:36:31;;;;;;;13.13;5.90;;;;;;;19.38;47.54;100969.75;5061828;28;20409;-73
2023/07/02 08:38:56;;;;;;;13.05;5.85;;;;;;;19.42;47.22;100970.81;5064821;28;20040;-73
2023/07/02 08:41:23;;;;;;;16.52;6.05;;;;;;;19.44;46.87;100976.13;5087830;28;20517;-73
2023/07/02 08:43:49;;;;;;;13.00;6.22;;;;;;;19.43;45.40;100980.09;5088639;28;20415;-73
2023/07/02 08:46:16;;;;;;;13.02;5.93;;;;;;;19.44;44.71;100976.13;5073477;28;20029;-71
2023/07/02 08:48:41;;;;;;;11.60;6.05;;;;;;;19.53;45.92;100979.88;5066700;28;20033;-76
2023/07/02 08:51:10;;;;;;;14.00;6.45;;;;;;;19.62;45.84;100980.88;5082674;28;20078;-74
2023/07/02 08:53:35;;;;;;;12.77;6.15;;;;;;;19.80;45.96;100981.91;5064208;28;20028;-73
2023/07/02 08:56:03;;;;;;;13.85;6.05;;;;;;;19.92;45.69;100976.59;5062925;28;20025;-73
2023/07/02 08:58:28;;;;;;;12.35;6.10;;;;;;;19.91;43.34;100985.38;5071647;28;20033;-70
2023/07/02 09:01:06;;;;;;;10.90;5.35;;;;;;;19.93;44.78;100978.28;5074469;28;20031;-70
2023/07/02 09:03:32;;;;;;;14.45;6.28;;;;;;;19.91;44.06;100974.94;5085407;28;20532;-70
2023/07/02 09:05:58;;;;;;;14.23;6.00;;;;;;;19.96;43.74;100977.63;5090820;28;20028;-70
2023/07/02 09:08:27;;;;;;;12.68;5.90;;;;;;;20.01;42.53;100968.28;5076491;28;20031;-73
2023/07/02 09:10:54;;;;;;;12.15;5.78;;;;;;;20.10;42.82;100975.66;5063587;28;20024;-70
2023/07/02 09:13:19;;;;;;;9.20;5.05;;;;;;;20.10;42.58;100975.66;5068968;28;20108;-74
2023/07/02 09:15:44;;;;;;;12.45;6.68;;;;;;;20.19;47.46;100974.91;5064458;28;20128;-71
2023/07/02 09:18:20;;;;;;;10.63;6.40;;;;;;;20.25;48.73;100976.50;5052755;28;20104;-72
2023/07/02 09:20:46;;;;;;;10.95;6.70;;;;;;;20.29;46.93;100964.25;5052545;28;20491;-76
2023/07/02 09:23:11;;;;;;;11.90;6.93;;;;;;;20.52;53.27;100978.47;5048210;28;20028;-73
2023/07/02 09:25:38;;;;;;;10.35;5.75;;;;;;;20.51;47.04;100979.59;5061673;28;20039;-72
2023/07/02 09:28:24;;;;;;;10.07;6.50;;;;;;;20.64;48.08;100973.09;5068366;28;20090;-76
2023/07/02 09:30:58;;;;;;;12.27;6.32;;;;;;;20.76;50.01;100969.72;5048981;28;20040;-74
2023/07/02 09:33:25;;;;;;;16.15;6.38;;;;;;;20.84;48.28;100972.59;5067963;28;20120;-75
2023/07/02 09:35:51;;;;;;;11.35;5.85;;;;;;;20.82;47.87;100976.88;5066691;28;20032;-72
2023/07/02 09:38:18;;;;;;;11.77;6.10;;;;;;;20.81;47.92;100978.88;5065797;28;20036;-76
2023/07/02 09:40:47;;;;;;;15.10;6.35;;;;;;;20.89;48.10;100976.44;5071081;28;20365;-76
2023/07/02 09:43:14;;;;;;;16.45;6.68;;;;;;;20.75;44.88;100968.03;5071104;28;20127;-79
2023/07/02 09:45:43;;;;;;;11.98;6.43;;;;;;;20.83;46.36;100976.59;5072608;28;20024;-79
2023/07/02 09:48:10;;;;;;;12.13;6.20;;;;;;;20.86;47.11;100974.25;5073022;28;20685;-74
2023/07/02 09:50:37;;;;;;;10.70;6.25;;;;;;;20.83;46.68;100985.03;5061580;28;20020;-74
2023/07/02 09:53:03;;;;;;;15.30;6.38;;;;;;;20.77;46.40;100977.84;5065994;28;20491;-74
2023/07/02 09:55:29;;;;;;;14.27;6.07;;;;;;;20.78;44.46;100975.84;5057009;28;20029;-73
2023/07/02 09:57:54;;;;;;;14.65;6.22;;;;;;;20.75;44.61;100980.16;5072915;28;20432;-76
2023/07/02 10:00:19;;;;;;;9.50;5.70;;;;;;;20.66;44.53;100981.22;5067738;28;20506;-70
2023/07/02 10:02:49;;;;;;;11.45;5.65;;;;;;;20.58;44.49;100982.81;5067829;28;20107;-72
2023/07/02 10:05:32;;;;;;;16.95;6.10;;;;;;;20.64;46.24;100990.00;5056684;28;20025;-70
2023/07/02 10:08:12;;;;;;;11.10;6.25;;;;;;;20.65;45.62;100986.03;5060151;28;20443;-71
2023/07/02 10:10:37;;;;;;;11.60;6.35;;;;;;;20.80;46.14;100999.78;5069487;28;20060;-71
2023/07/02 10:13:03;;;;;;;12.98;6.13;;;;;;;20.84;46.15;101000.81;5070850;28;20056;-70
2023/07/02 10:15:30;;;;;;;12.13;6.35;;;;;;;20.70;45.81;100988.72;5056745;28;20770;-71
2023/07/02 10:18:01;;;;;;;15.05;5.97;;;;;;;20.69;45.85;101003.16;5063977;28;20040;-70
2023/07/02 10:20:35;;;;;;;11.88;5.80;;;;;;;20.72;46.09;101002.53;5071571;28;20085;-73
2023/07/02 10:23:01;;;;;;;48.63;9.00;;;;;;;20.74;46.46;101008.69;5070480;28;20112;-71
2023/07/02 10:25:29;;;;;;;16.33;6.68;;;;;;;20.83;46.61;101009.59;5062382;28;20028;-70
2023/07/02 10:27:55;;;;;;;14.40;6.95;;;;;;;20.83;44.05;101004.78;5053624;28;20029;-69
2023/07/02 10:30:31;;;;;;;13.25;6.85;;;;;;;20.86;44.83;100999.66;5053125;28;20031;-71
2023/07/02 10:33:09;;;;;;;13.77;6.25;;;;;;;20.91;45.31;101008.00;5066113;28;20098;-73
2023/07/02 10:35:35;;;;;;;14.27;6.45;;;;;;;20.96;44.83;101007.88;5053036;28;20154;-71
2023/07/02 10:38:00;;;;;;;16.05;6.93;;;;;;;21.00;44.50;101003.25;5059468;28;20040;-73
2023/07/02 10:40:26;;;;;;;11.23;5.85;;;;;;;21.14;46.51;101003.19;5060736;28;20033;-74
2023/07/02 10:42:52;;;;;;;13.15;6.70;;;;;;;21.02;43.92;101012.22;5055600;28;20079;-72
2023/07/02 10:45:19;;;;;;;18.13;7.03;;;;;;;20.97;44.12;101009.53;5074341;28;20037;-71
2023/07/02 10:47:44;;;;;;;12.88;6.43;;;;;;;20.97;44.40;101001.91;5066959;28;20024;-73
2023/07/02 10:50:18;;;;;;;12.07;6.18;;;;;;;21.12;46.08;101011.16;5056000;28;20094;-72
2023/07/02 10:52:43;;;;;;;15.65;7.53;;;;;;;21.01;44.28;101019.03;5068640;28;20040;-71
2023/07/02 10:55:09;;;;;;;15.60;7.38;;;;;;;20.97;44.06;101010.38;5069167;28;20112;-71
2023/07/02 10:57:34;;;;;;;15.98;7.18;;;;;;;20.95;44.48;101015.50;5061854;28;20106;-72
2023/07/02 11:00:08;;;;;;;13.77;7.38;;;;;;;21.00;44.97;101015.38;5056857;28;20506;-73
2023/07/02 11:02:37;;;;;;;17.55;8.30;;;;;;;20.98;44.04;101005.56;5060156;28;20032;-74
2023/07/02 11:05:04;;;;;;;18.08;7.63;;;;;;;21.00;44.10;101009.75;5056895;28;20037;-72
2023/07/02 11:07:29;;;;;;;21.33;7.65;;;;;;;21.07;44.49;101003.66;5052949;28;20108;-72
2023/07/02 11:09:54;;;;;;;19.42;7.80;;;;;;;21.18;44.80;101007.91;5060317;28;20504;-72